createdAt,value
2022-11-26T12:07:07.209Z,30.77
2022-11-26T12:09:53.391Z,31.75
2022-11-26T12:12:35.703Z,28.62
2022-11-26T12:15:10.021Z,23.47
2022-11-26T12:17:57.158Z,24.43
2022-11-26T12:20:37.179Z,17.70
2022-11-26T12:23:24.325Z,20.62
2022-11-26T12:26:20.938Z,19.05
2022-11-26T12:28:58.066Z,20.27
2022-11-26T12:31:43.064Z,18.65
2022-11-26T12:34:35.258Z,18.92
2022-11-26T12:37:30.537Z,21.77
2022-11-26T12:40:21.268Z,19.00
2022-11-26T12:43:00.123Z,21.77
2022-11-26T12:45:51.868Z,17.85
2022-11-26T12:48:45.599Z,18.92
2022-11-26T12:51:26.307Z,18.20
2022-11-26T12:54:07.140Z,18.40
2022-11-26T12:56:50.392Z,20.90
2022-11-26T12:59:39.607Z,21.20
2022-11-26T13:02:30.161Z,17.45
2022-11-26T13:05:00.159Z,17.50
2022-11-26T13:08:05.101Z,18.25
2022-11-26T13:10:55.571Z,18.15
2022-11-26T13:13:54.819Z,18.55
2022-11-26T13:16:44.330Z,18.67
2022-11-26T13:19:35.914Z,22.30
2022-11-26T13:22:44.431Z,17.75
2022-11-26T13:25:37.196Z,19.00
2022-11-26T13:28:48.304Z,19.90
2022-11-26T13:31:42.006Z,25.30
2022-11-26T13:34:34.621Z,22.60
2022-11-26T13:37:33.568Z,20.68
2022-11-26T13:40:10.971Z,18.23
2022-11-26T13:42:52.482Z,19.25
2022-11-26T13:45:34.056Z,21.55
2022-11-26T13:48:11.240Z,18.50
2022-11-26T13:50:48.021Z,17.80
2022-11-26T13:53:27.001Z,26.42
2022-11-26T13:56:01.695Z,17.92
2022-11-26T13:58:45.467Z,17.32
2022-11-26T14:01:39.516Z,21.70
2022-11-26T14:04:12.335Z,21.30
2022-11-26T14:07:09.577Z,17.32
2022-11-26T14:09:48.175Z,22.20
2022-11-26T14:12:17.989Z,28.32
2022-11-26T14:14:50.423Z,22.17
2022-11-26T14:17:24.839Z,24.45
2022-11-26T14:19:59.482Z,19.75
2022-11-26T14:22:35.828Z,21.85
2022-11-26T14:25:11.228Z,21.62
2022-11-26T14:27:53.471Z,22.22
2022-11-26T14:30:25.445Z,17.95
2022-11-26T14:33:19.255Z,21.50
2022-11-26T14:35:56.532Z,26.80
2022-11-26T14:41:00.695Z,23.70
2022-11-26T14:43:29.544Z,20.90
2022-11-26T14:46:11.174Z,23.02
2022-11-26T14:48:47.267Z,22.77
2022-11-26T14:51:23.175Z,28.10
2022-11-26T14:53:52.708Z,25.50
2022-11-26T14:56:23.753Z,26.80
2022-11-26T14:58:55.304Z,31.73
2022-11-26T15:01:26.639Z,28.45
2022-11-26T15:04:02.431Z,30.65
2022-11-26T15:06:36.992Z,22.15
2022-11-26T15:09:18.909Z,27.05
2022-11-26T15:12:14.275Z,28.55
2022-11-26T15:14:54.485Z,28.05
2022-11-26T15:17:24.484Z,28.90
2022-11-26T15:19:53.677Z,24.60
2022-11-26T15:22:39.181Z,22.52
2022-11-26T15:25:18.607Z,22.48
2022-11-26T15:28:05.237Z,24.35
2022-11-26T15:30:36.908Z,23.10
2022-11-26T15:33:13.037Z,23.25
2022-11-26T15:35:44.046Z,22.45
2022-11-26T15:38:20.271Z,19.17
2022-11-26T15:41:03.740Z,23.20
2022-11-26T15:43:45.702Z,22.40
2022-11-26T15:46:27.792Z,27.95
2022-11-26T15:49:00.561Z,29.82
2022-11-26T15:51:40.973Z,24.52
2022-11-26T15:54:49.540Z,24.18
2022-11-26T15:57:32.708Z,26.33
2022-11-26T16:00:06.381Z,30.45
2022-11-26T16:02:35.974Z,23.07
2022-11-26T16:05:07.673Z,23.32
2022-11-26T16:07:36.281Z,23.02
2022-11-26T16:10:20.055Z,27.00
2022-11-26T16:13:13.501Z,18.65
2022-11-26T16:15:53.987Z,21.45
2022-11-26T16:18:27.991Z,25.50
2022-11-26T16:21:16.947Z,23.73
2022-11-26T16:23:53.070Z,25.25
2022-11-26T16:26:22.919Z,51.28
2022-11-26T16:28:52.410Z,41.05
2022-11-26T16:31:21.481Z,37.23
2022-11-26T16:33:50.717Z,30.68
2022-11-26T16:36:23.404Z,28.27
2022-11-26T16:38:52.286Z,27.55
2022-11-26T16:41:22.222Z,29.02
2022-11-26T16:43:50.691Z,24.32
2022-11-26T16:46:23.784Z,24.82
2022-11-26T16:48:52.383Z,26.97
2022-11-26T16:51:21.292Z,26.45
2022-11-26T16:53:51.937Z,27.52
2022-11-26T16:56:33.090Z,28.60
2022-11-26T16:59:02.515Z,29.75
2022-11-26T17:01:31.093Z,24.70
2022-11-26T17:03:59.639Z,22.32
2022-11-26T17:06:31.628Z,24.32
2022-11-26T17:09:00.178Z,24.77
2022-11-26T17:11:29.226Z,23.30
2022-11-26T17:13:58.035Z,22.87
2022-11-26T17:16:27.262Z,23.15
2022-11-26T17:18:56.208Z,22.10
2022-11-26T17:21:25.696Z,20.40
2022-11-26T17:23:54.571Z,21.73
2022-11-26T17:26:24.186Z,24.72
2022-11-26T17:28:52.922Z,20.77
2022-11-26T17:31:21.624Z,22.65
2022-11-26T17:33:50.891Z,21.87
2022-11-26T17:36:21.433Z,23.67
2022-11-26T17:38:50.101Z,27.93
2022-11-26T17:41:20.514Z,19.07
2022-11-26T17:43:50.007Z,24.47
2022-11-26T17:46:20.802Z,20.88
2022-11-26T17:48:49.517Z,21.17
2022-11-26T17:51:19.713Z,20.15
2022-11-26T17:53:48.642Z,23.15
2022-11-26T17:56:21.360Z,25.85
2022-11-26T17:58:50.744Z,22.60
2022-11-26T18:01:20.854Z,21.37
2022-11-26T18:03:51.759Z,25.12
2022-11-26T18:06:42.082Z,33.02
2022-11-26T18:09:14.572Z,28.42
2022-11-26T18:11:51.323Z,31.97
2022-11-26T18:14:22.540Z,23.90
2022-11-26T18:16:51.616Z,26.35
2022-11-26T18:19:24.099Z,27.60
2022-11-26T18:21:53.650Z,29.40
2022-11-26T18:24:23.490Z,32.05
2022-11-26T18:26:54.802Z,26.42
2022-11-26T18:29:25.196Z,26.48
2022-11-26T18:31:55.210Z,23.60
2022-11-26T18:34:25.374Z,27.00
2022-11-26T18:36:55.724Z,21.70
2022-11-26T18:39:24.470Z,22.65
2022-11-26T18:42:00.708Z,21.00
2022-11-26T18:44:24.931Z,19.95
2022-11-26T18:46:54.168Z,19.52
2022-11-26T18:49:23.142Z,24.27
2022-11-26T18:51:53.260Z,24.85
2022-11-26T18:54:23.174Z,26.33
2022-11-26T18:56:54.233Z,26.35
2022-11-26T18:59:23.414Z,20.32
2022-11-26T19:01:53.405Z,23.52
2022-11-26T19:04:23.595Z,29.10
2022-11-26T19:06:53.026Z,32.42
2022-11-26T19:09:22.563Z,27.15
2022-11-26T19:11:54.937Z,22.37
2022-11-26T19:14:24.072Z,20.10
2022-11-26T19:16:53.235Z,21.35
2022-11-26T19:19:23.040Z,30.12
2022-11-26T19:21:55.514Z,21.20
2022-11-26T19:24:22.690Z,18.98
2022-11-26T19:26:51.273Z,17.48
2022-11-26T19:29:20.986Z,17.55
2022-11-26T19:31:50.104Z,17.57
2022-11-26T19:34:19.963Z,22.98
2022-11-26T19:36:49.223Z,20.32
2022-11-26T19:39:19.689Z,20.20
2022-11-26T19:41:48.767Z,21.82
2022-11-26T19:44:18.775Z,21.45
2022-11-26T19:46:48.488Z,20.90
2022-11-26T19:49:17.395Z,24.50
2022-11-26T19:51:46.340Z,19.07
2022-11-26T19:54:15.118Z,21.57
2022-11-26T19:56:45.988Z,20.55
2022-11-26T19:59:16.006Z,16.37
2022-11-26T20:01:45.090Z,22.00
2022-11-26T20:04:17.771Z,18.92
2022-11-26T20:06:47.151Z,19.75
2022-11-26T20:09:16.422Z,20.72
2022-11-26T20:11:45.827Z,24.37
2022-11-26T20:14:14.454Z,17.42
2022-11-26T20:16:44.410Z,17.07
2022-11-26T20:19:13.193Z,16.30
2022-11-26T20:21:41.826Z,17.05
2022-11-26T20:24:16.634Z,15.60
2022-11-26T20:26:48.024Z,16.87
2022-11-26T20:29:18.084Z,15.40
2022-11-26T20:31:51.171Z,17.23
2022-11-26T20:34:23.750Z,20.00
2022-11-26T20:36:52.911Z,19.62
2022-11-26T20:39:22.868Z,16.67
2022-11-26T20:41:51.660Z,20.02
2022-11-26T20:44:20.304Z,23.52
2022-11-26T20:46:49.335Z,18.85
2022-11-26T20:49:19.515Z,19.42
2022-11-26T20:51:48.374Z,22.60
2022-11-26T20:54:17.019Z,16.20
2022-11-26T20:56:46.561Z,17.60
2022-11-26T20:59:16.825Z,22.65
2022-11-26T21:01:45.964Z,17.73
2022-11-26T21:04:14.861Z,18.00
2022-11-26T21:06:43.865Z,19.55
2022-11-26T21:09:13.280Z,15.05
2022-11-26T21:11:43.173Z,20.65
2022-11-26T21:14:15.210Z,21.12
2022-11-26T21:16:44.610Z,19.00
2022-11-26T21:19:13.523Z,19.00
2022-11-26T21:21:42.275Z,16.50
2022-11-26T21:24:12.044Z,15.43
2022-11-26T21:26:40.676Z,12.90
2022-11-26T21:29:09.269Z,15.78
2022-11-26T21:31:38.152Z,19.12
2022-11-26T21:34:07.553Z,14.58
2022-11-26T21:36:37.072Z,16.73
2022-11-26T21:39:06.350Z,12.70
2022-11-26T21:41:35.648Z,11.83
2022-11-26T21:44:05.028Z,12.82
2022-11-26T21:46:38.670Z,15.45
2022-11-26T21:49:07.596Z,12.80
2022-11-26T21:51:36.641Z,15.80
2022-11-26T21:54:05.731Z,18.65
2022-11-26T21:56:34.393Z,13.35
2022-11-26T21:59:03.249Z,12.75
2022-11-26T22:01:36.951Z,11.85
2022-11-26T22:04:14.634Z,14.68
2022-11-26T22:06:46.879Z,15.98
2022-11-26T22:09:17.018Z,10.85
2022-11-26T22:11:46.252Z,13.75
2022-11-26T22:14:16.149Z,12.58
2022-11-26T22:16:53.907Z,13.80
2022-11-26T22:19:23.210Z,13.25
2022-11-26T22:21:52.041Z,12.25
2022-11-26T22:24:20.958Z,13.65
2022-11-26T22:26:50.442Z,16.57
2022-11-26T22:29:19.892Z,15.75
2022-11-26T22:31:50.261Z,14.13
2022-11-26T22:34:24.402Z,15.15
2022-11-26T22:36:53.399Z,14.40
2022-11-26T22:39:23.369Z,16.42
2022-11-26T22:41:53.107Z,13.22
2022-11-26T22:44:22.206Z,10.78
2022-11-26T22:46:50.954Z,14.98
2022-11-26T22:49:21.850Z,14.45
2022-11-26T22:51:50.523Z,9.73
2022-11-26T22:54:21.056Z,12.85
2022-11-26T22:56:50.976Z,13.40
2022-11-26T22:59:20.624Z,12.10
2022-11-26T23:01:53.609Z,11.50
2022-11-26T23:04:22.304Z,11.43
2022-11-26T23:06:52.229Z,13.03
2022-11-26T23:09:21.288Z,9.53
2022-11-26T23:11:51.367Z,9.73
2022-11-26T23:14:19.871Z,10.93
2022-11-26T23:16:48.659Z,9.43
2022-11-26T23:19:18.556Z,12.13
2022-11-26T23:21:47.588Z,11.97
2022-11-26T23:24:16.229Z,15.88
2022-11-26T23:26:45.027Z,14.03
2022-11-26T23:29:13.831Z,11.70
2022-11-26T23:31:43.846Z,13.22
2022-11-26T23:34:12.720Z,14.65
2022-11-26T23:36:42.644Z,9.93
2022-11-26T23:39:12.003Z,9.30
2022-11-26T23:41:41.044Z,10.35
2022-11-26T23:44:10.322Z,7.70
2022-11-26T23:46:40.396Z,7.47
2022-11-26T23:49:09.420Z,9.93
2022-11-26T23:51:39.183Z,6.15
2022-11-26T23:54:09.169Z,8.10
2022-11-26T23:56:38.468Z,9.85
2022-11-26T23:59:07.899Z,8.68
